createdAt,value
2023-02-14T00:00:01.926Z,91.89
2023-02-14T00:04:04.010Z,91.87
2023-02-14T00:07:59.109Z,91.78
2023-02-14T00:11:40.340Z,91.50
2023-02-14T00:15:21.542Z,91.37
2023-02-14T00:19:03.203Z,91.36
2023-02-14T00:22:25.838Z,91.59
2023-02-14T00:26:22.329Z,91.53
2023-02-14T00:30:04.829Z,91.54
2023-02-14T00:33:28.976Z,91.70
2023-02-14T00:37:26.560Z,91.45
2023-02-14T00:40:49.313Z,91.69
2023-02-14T00:44:28.779Z,91.51
2023-02-14T00:48:23.679Z,91.26
2023-02-14T00:51:45.907Z,91.27
2023-02-14T00:55:48.764Z,91.17
2023-02-14T00:59:11.593Z,91.39
2023-02-14T01:03:07.687Z,91.46
2023-02-14T01:06:51.050Z,91.52
2023-02-14T01:10:15.568Z,91.58
2023-02-14T01:13:56.411Z,91.57
2023-02-14T01:17:30.877Z,91.68
2023-02-14T01:21:33.319Z,91.43
2023-02-14T01:25:14.536Z,91.55
2023-02-14T01:28:37.848Z,91.31
2023-02-14T01:32:14.354Z,91.42
2023-02-14T01:35:52.321Z,91.55
2023-02-14T01:39:31.286Z,91.45
2023-02-14T01:43:31.800Z,91.63
2023-02-14T01:47:23.950Z,91.73
2023-02-14T01:50:50.319Z,91.68
2023-02-14T01:54:27.821Z,91.53
2023-02-14T01:58:27.730Z,91.38
2023-02-14T02:01:55.125Z,91.43
2023-02-14T02:05:27.887Z,91.54
2023-02-14T02:09:34.998Z,91.59
2023-02-14T02:13:18.816Z,91.66
2023-02-14T02:17:24.774Z,91.65
2023-02-14T02:20:53.065Z,91.71
2023-02-14T02:25:02.198Z,91.69
2023-02-14T02:29:14.567Z,91.27
2023-02-14T02:32:57.100Z,91.50
2023-02-14T02:36:45.590Z,91.66
2023-02-14T02:40:44.691Z,91.54
2023-02-14T02:45:06.062Z,91.63
2023-02-14T02:48:45.030Z,91.58
2023-02-14T02:53:05.451Z,91.33
2023-02-14T02:56:47.431Z,91.36
2023-02-14T03:00:29.982Z,91.35
2023-02-14T03:04:16.149Z,91.36
2023-02-14T03:07:58.080Z,91.55
2023-02-14T03:11:55.988Z,91.45
2023-02-14T03:15:38.550Z,91.55
2023-02-14T03:20:14.647Z,91.66
2023-02-14T03:24:02.558Z,91.58
2023-02-14T03:27:59.105Z,91.54
2023-02-14T03:31:32.119Z,91.31
2023-02-14T03:35:01.768Z,91.23
2023-02-14T03:38:45.645Z,91.14
2023-02-14T03:42:26.145Z,91.09
2023-02-14T03:45:58.885Z,91.36
2023-02-14T03:49:33.543Z,91.47
2023-02-14T03:53:09.987Z,91.60
2023-02-14T03:56:53.144Z,91.73
2023-02-14T04:00:45.470Z,91.49
2023-02-14T04:04:08.997Z,91.58
2023-02-14T04:08:04.126Z,91.54
2023-02-14T04:11:27.232Z,91.32
2023-02-14T04:15:23.129Z,91.21
2023-02-14T04:19:22.530Z,91.05
2023-02-14T04:23:03.812Z,91.16
2023-02-14T04:26:25.690Z,91.49
2023-02-14T04:30:04.934Z,91.67
2023-02-14T04:33:41.135Z,91.51
2023-02-14T04:37:21.999Z,91.45
2023-02-14T04:40:57.966Z,91.25
2023-02-14T04:44:34.196Z,91.08
2023-02-14T04:48:12.091Z,91.41
2023-02-14T04:52:10.657Z,91.25
2023-02-14T04:55:35.070Z,91.36
2023-02-14T04:59:12.270Z,91.57
2023-02-14T05:02:51.347Z,91.76
2023-02-14T05:06:30.854Z,91.78
2023-02-14T05:10:24.256Z,91.62
2023-02-14T05:13:46.467Z,91.32
2023-02-14T05:17:24.583Z,91.20
2023-02-14T05:21:21.057Z,91.13
2023-02-14T05:25:02.407Z,91.31
2023-02-14T05:28:43.660Z,91.41
2023-02-14T05:32:05.941Z,91.53
2023-02-14T05:35:46.634Z,91.49
2023-02-14T05:39:21.132Z,91.48
2023-02-14T05:43:00.470Z,91.20
2023-02-14T05:46:36.396Z,91.08
2023-02-14T05:50:33.181Z,91.17
2023-02-14T05:54:14.658Z,91.35
2023-02-14T05:57:58.616Z,91.46
2023-02-14T06:01:23.492Z,91.51
2023-02-14T06:04:58.994Z,91.52
2023-02-14T06:08:55.413Z,91.49
2023-02-14T06:12:17.441Z,91.28
2023-02-14T06:15:55.050Z,91.01
2023-02-14T06:19:32.726Z,90.96
2023-02-14T06:23:11.188Z,90.90
2023-02-14T06:26:48.031Z,91.17
2023-02-14T06:30:46.286Z,91.28
2023-02-14T06:34:27.407Z,91.29
2023-02-14T06:37:49.539Z,91.18
2023-02-14T06:41:27.150Z,90.97
2023-02-14T06:45:24.688Z,90.75
2023-02-14T06:49:05.894Z,90.74
2023-02-14T06:52:46.870Z,90.85
2023-02-14T06:56:30.657Z,91.29
2023-02-14T06:59:52.379Z,91.39
2023-02-14T07:03:48.951Z,91.46
2023-02-14T07:07:16.223Z,91.61
2023-02-14T07:11:07.721Z,91.18
2023-02-14T07:14:48.946Z,90.96
2023-02-14T07:18:12.466Z,90.80
2023-02-14T07:22:08.748Z,90.92
2023-02-14T07:25:31.062Z,91.29
2023-02-14T07:29:08.639Z,91.37
2023-02-14T07:33:05.098Z,91.32
2023-02-14T07:36:31.553Z,91.11
2023-02-14T07:40:24.591Z,91.15
2023-02-14T07:44:05.749Z,91.13
2023-02-14T07:47:29.339Z,91.54
2023-02-14T07:51:24.371Z,91.66
2023-02-14T07:55:06.835Z,91.60
2023-02-14T07:58:29.178Z,91.32
2023-02-14T08:02:11.328Z,91.13
2023-02-14T08:05:57.284Z,90.92
2023-02-14T08:09:25.780Z,90.81
2023-02-14T08:13:19.813Z,90.71
2023-02-14T08:17:03.730Z,91.35
2023-02-14T08:20:50.877Z,91.20
2023-02-14T08:24:34.340Z,91.28
2023-02-14T08:27:57.682Z,91.07
2023-02-14T08:31:38.491Z,91.13
2023-02-14T08:35:12.043Z,91.03
2023-02-14T08:39:12.525Z,91.28
2023-02-14T08:42:36.442Z,91.22
2023-02-14T08:46:16.865Z,91.45
2023-02-14T08:50:14.417Z,91.42
2023-02-14T08:53:55.631Z,91.18
2023-02-14T08:57:18.662Z,90.84
2023-02-14T09:00:55.903Z,90.97
2023-02-14T09:04:35.449Z,90.94
2023-02-14T09:08:12.985Z,90.80
2023-02-14T09:12:09.534Z,90.83
2023-02-14T09:15:50.615Z,90.76
2023-02-14T09:19:12.903Z,90.13
2023-02-14T09:23:09.745Z,90.55
2023-02-14T09:26:38.891Z,90.62
2023-02-14T09:30:28.824Z,90.47
2023-02-14T09:34:30.560Z,90.30
2023-02-14T09:38:12.574Z,90.41
2023-02-14T09:41:58.169Z,90.16
2023-02-14T09:45:43.068Z,90.30
2023-02-14T09:49:34.996Z,89.61
2023-02-14T09:53:26.654Z,89.18
2023-02-14T09:57:11.762Z,88.84
2023-02-14T10:01:10.527Z,89.10
2023-02-14T10:04:49.907Z,89.35
2023-02-14T10:08:47.484Z,89.30
2023-02-14T10:12:47.696Z,87.88
2023-02-14T10:16:33.576Z,88.53
2023-02-14T10:20:27.451Z,88.02
2023-02-14T10:23:56.361Z,88.13
2023-02-14T10:27:48.973Z,88.28
2023-02-14T10:31:20.496Z,88.10
2023-02-14T10:34:51.784Z,87.86
2023-02-14T10:38:41.550Z,87.78
2023-02-14T10:42:25.948Z,87.52
2023-02-14T10:46:40.485Z,87.23
2023-02-14T10:50:44.890Z,87.26
2023-02-14T10:54:25.845Z,87.12
2023-02-14T10:57:53.826Z,86.80
2023-02-14T11:01:26.358Z,86.64
2023-02-14T11:05:05.077Z,86.62
2023-02-14T11:08:43.288Z,85.76
2023-02-14T11:12:37.994Z,85.81
2023-02-14T11:16:04.190Z,86.28
2023-02-14T11:19:38.959Z,86.70
2023-02-14T11:23:21.034Z,85.20
2023-02-14T11:27:05.273Z,85.23
2023-02-14T11:30:51.896Z,85.27
2023-02-14T11:34:39.367Z,85.17
2023-02-14T11:38:33.649Z,85.78
2023-02-14T11:42:01.328Z,85.46
2023-02-14T11:45:40.155Z,85.11
2023-02-14T11:49:55.764Z,85.13
2023-02-14T11:53:51.530Z,85.37
2023-02-14T11:57:18.846Z,85.29
2023-02-14T12:01:25.919Z,84.91
2023-02-14T12:04:52.953Z,84.30
2023-02-14T12:08:44.911Z,84.83
2023-02-14T12:12:27.605Z,84.92
2023-02-14T12:15:54.650Z,84.59
2023-02-14T12:19:54.007Z,84.38
2023-02-14T12:23:22.538Z,84.35
2023-02-14T12:27:29.082Z,84.67
2023-02-14T12:30:52.612Z,84.49
2023-02-14T12:34:29.848Z,83.65
2023-02-14T12:38:35.836Z,83.74
2023-02-14T12:42:25.558Z,83.93
2023-02-14T12:46:43.857Z,82.87
2023-02-14T12:50:24.851Z,83.27
2023-02-14T12:54:23.991Z,83.17
2023-02-14T12:58:01.271Z,83.71
2023-02-14T13:01:38.498Z,82.52
2023-02-14T13:05:37.256Z,83.44
2023-02-14T13:09:28.769Z,83.51
2023-02-14T13:13:29.958Z,83.24
2023-02-14T13:17:06.445Z,82.90
2023-02-14T13:20:32.715Z,81.94
2023-02-14T13:24:19.877Z,82.34
2023-02-14T13:27:45.224Z,82.53
2023-02-14T13:31:41.942Z,82.54
2023-02-14T13:35:06.888Z,82.84
2023-02-14T13:38:49.025Z,83.06
2023-02-14T13:42:47.493Z,82.55
2023-02-14T13:46:31.614Z,82.42
2023-02-14T13:50:20.878Z,82.49
2023-02-14T13:54:19.174Z,81.78
2023-02-14T13:58:15.678Z,81.77
2023-02-14T14:02:27.614Z,81.91
2023-02-14T14:06:01.493Z,81.90
2023-02-14T14:09:41.750Z,81.81
2023-02-14T14:13:07.216Z,81.80
2023-02-14T14:16:58.527Z,81.54
2023-02-14T14:20:23.182Z,81.46
2023-02-14T14:24:33.354Z,81.42
2023-02-14T14:28:21.369Z,81.62
2023-02-14T14:31:45.154Z,81.80
2023-02-14T14:35:52.256Z,81.62
2023-02-14T14:39:40.750Z,81.75
2023-02-14T14:43:13.284Z,81.61
2023-02-14T14:46:43.353Z,81.71
2023-02-14T14:50:27.549Z,81.86
2023-02-14T14:54:03.426Z,81.84
2023-02-14T14:57:39.895Z,81.67
2023-02-14T15:01:30.888Z,81.81
2023-02-14T15:04:55.727Z,81.79
2023-02-14T15:08:34.430Z,81.93
2023-02-14T15:12:29.885Z,81.30
2023-02-14T15:16:29.347Z,81.32
2023-02-14T15:20:04.664Z,81.74
2023-02-14T15:23:30.288Z,82.07
2023-02-14T15:27:27.600Z,82.24
2023-02-14T15:31:08.776Z,82.22
2023-02-14T15:34:53.242Z,81.82
2023-02-14T15:38:18.111Z,81.90
2023-02-14T15:41:55.990Z,81.75
2023-02-14T15:45:31.334Z,81.60
2023-02-14T15:49:11.782Z,81.94
2023-02-14T15:52:48.171Z,82.01
2023-02-14T15:56:31.612Z,81.97
2023-02-14T16:00:06.593Z,81.92
2023-02-14T16:03:48.202Z,82.50
2023-02-14T16:07:28.454Z,82.49
2023-02-14T16:11:15.139Z,82.42
2023-02-14T16:14:44.200Z,82.47
2023-02-14T16:18:46.813Z,82.43
2023-02-14T16:22:11.360Z,82.27
2023-02-14T16:26:07.315Z,82.19
2023-02-14T16:29:29.148Z,82.40
2023-02-14T16:33:21.212Z,82.97
2023-02-14T16:36:48.789Z,82.78
2023-02-14T16:40:44.621Z,82.83
2023-02-14T16:44:07.027Z,82.82
2023-02-14T16:47:48.361Z,82.97
2023-02-14T16:51:43.929Z,82.80
2023-02-14T16:55:07.045Z,82.81
2023-02-14T16:58:46.223Z,82.66
2023-02-14T17:02:22.522Z,83.07
2023-02-14T17:06:26.934Z,83.03
2023-02-14T17:09:56.099Z,83.28
2023-02-14T17:13:27.765Z,83.17
2023-02-14T17:17:04.280Z,83.36
2023-02-14T17:21:01.232Z,83.39
2023-02-14T17:24:29.801Z,83.13
2023-02-14T17:28:03.633Z,82.89
2023-02-14T17:31:59.894Z,82.88
2023-02-14T17:35:40.701Z,83.07
2023-02-14T17:39:03.361Z,82.97
2023-02-14T17:42:40.595Z,82.96
2023-02-14T17:46:21.033Z,83.07
2023-02-14T17:49:55.398Z,83.09
2023-02-14T17:53:34.188Z,83.03
2023-02-14T17:57:12.643Z,83.26
2023-02-14T18:01:11.350Z,83.47
2023-02-14T18:04:36.368Z,83.29
2023-02-14T18:08:13.777Z,83.38
2023-02-14T18:11:50.529Z,83.93
2023-02-14T18:15:46.647Z,83.51
2023-02-14T18:19:28.195Z,83.45
2023-02-14T18:22:50.365Z,83.09
2023-02-14T18:26:27.967Z,83.26
2023-02-14T18:30:06.707Z,83.68
2023-02-14T18:34:04.542Z,83.59
2023-02-14T18:37:26.769Z,83.33
2023-02-14T18:41:06.301Z,83.43
2023-02-14T18:45:01.377Z,83.55
2023-02-14T18:48:45.108Z,83.31
2023-02-14T18:52:07.285Z,83.37
2023-02-14T18:56:10.430Z,83.56
2023-02-14T18:59:32.882Z,83.51
2023-02-14T19:03:15.037Z,83.64
2023-02-14T19:07:07.296Z,83.89
2023-02-14T19:10:37.596Z,83.45
2023-02-14T19:14:10.355Z,83.31
2023-02-14T19:17:45.058Z,83.81
2023-02-14T19:21:25.029Z,83.88
2023-02-14T19:25:22.481Z,83.92
2023-02-14T19:28:47.405Z,83.62
2023-02-14T19:32:22.719Z,83.58
2023-02-14T19:36:02.005Z,83.27
2023-02-14T19:39:38.833Z,83.44
2023-02-14T19:43:38.606Z,83.60
2023-02-14T19:47:04.220Z,83.75
2023-02-14T19:50:39.348Z,83.96
2023-02-14T19:54:39.563Z,84.03
2023-02-14T19:58:20.781Z,83.94
2023-02-14T20:01:54.548Z,83.73
2023-02-14T20:05:22.904Z,83.82
2023-02-14T20:08:59.940Z,83.91
2023-02-14T20:12:56.241Z,83.78
2023-02-14T20:16:25.904Z,83.65
2023-02-14T20:20:01.946Z,83.83
2023-02-14T20:24:04.804Z,83.86
2023-02-14T20:27:46.428Z,84.05
2023-02-14T20:31:31.026Z,83.50
2023-02-14T20:34:54.316Z,83.49
2023-02-14T20:38:33.629Z,83.64
2023-02-14T20:42:28.317Z,84.05
2023-02-14T20:45:50.812Z,84.03
2023-02-14T20:49:30.768Z,83.95
2023-02-14T20:53:07.843Z,84.17
2023-02-14T20:56:43.720Z,83.93
2023-02-14T21:00:25.664Z,83.87
2023-02-14T21:03:58.925Z,83.92
2023-02-14T21:07:38.347Z,84.11
2023-02-14T21:11:16.629Z,84.30
2023-02-14T21:15:11.264Z,83.75
2023-02-14T21:18:58.134Z,83.67
2023-02-14T21:22:20.374Z,83.50
2023-02-14T21:25:58.170Z,83.65
2023-02-14T21:29:35.609Z,84.07
2023-02-14T21:33:15.477Z,84.54
2023-02-14T21:37:10.461Z,84.95
2023-02-14T21:40:32.639Z,84.66
2023-02-14T21:44:30.199Z,83.91
2023-02-14T21:48:31.227Z,83.50
2023-02-14T21:51:53.902Z,83.79
2023-02-14T21:55:33.276Z,83.75
2023-02-14T21:59:14.308Z,84.34
2023-02-14T22:03:05.515Z,84.55
2023-02-14T22:06:52.274Z,84.00
2023-02-14T22:10:40.497Z,84.01
2023-02-14T22:18:07.291Z,84.52
2023-02-14T22:25:33.349Z,84.62
2023-02-14T22:36:37.374Z,84.24
2023-02-14T22:40:24.647Z,84.61
2023-02-14T22:47:49.649Z,84.67
2023-02-14T23:02:30.152Z,84.75
2023-02-14T23:06:17.792Z,85.03
2023-02-14T23:10:09.027Z,85.28
2023-02-14T23:14:17.857Z,85.26
2023-02-14T23:18:24.527Z,85.44
2023-02-14T23:25:49.397Z,84.96
2023-02-14T23:29:42.404Z,84.62
2023-02-14T23:36:46.041Z,85.12
2023-02-14T23:41:01.593Z,85.43
2023-02-14T23:44:44.846Z,84.88
2023-02-14T23:48:28.261Z,84.87
2023-02-14T23:52:11.539Z,85.08
2023-02-14T23:55:52.537Z,85.07
2023-02-14T23:59:39.411Z,84.98
